Terminal Aerodrome Forecast
Issued by NWS Los Angeles, CA

Home | Current Version | Previous Version | Text Only | Print | Product List | Glossary On
Versions: 1 2 3 4 5 6 7 8 9 10 11 12 13 14 15 16 17 18 19 20 21 22 23 24 25
000
FTUS46 KLOX 010537
TAFSMX
TAF
KSMX 010537Z 0106/0206 30008KT P6SM BKN015
     FM010800 30008KT P6SM OVC008
     FM011000 VRB03KT 4SM BR OVC003
     FM011200 VRB03KT 1/2SM FG OVC001
     FM011500 VRB03KT 4SM BR OVC003
     FM011700 29006KT P6SM SCT012
     FM012000 30012KT P6SM FEW250
     FM020300 30006KT P6SM OVC007=

USA.gov is the U.S. government's official web portal to all federal, state and local government web resources and services.